Time;durP1;ratioP1;P1;durP2;ratioP2;P2;SDS_P1;SDS_P2;PMS_P1;PMS_P2;Temp;Humidity;BMP_temperature;BMP_pressure;BME280_temperature;BME280_humidity;BME280_pressure;Samples;Min_cycle;Max_cycle;Signal;HPM_P1;HPM_P2
2023/10/15 00:01:32;;;;;;;6.00;2.80;;;;;;;17.81;53.08;98685.13;5076141;28;20174;-86
2023/10/15 00:03:57;;;;;;;6.33;2.37;;;;;;;17.70;53.71;98696.69;5075833;28;20170;-85
2023/10/15 00:06:23;;;;;;;8.10;2.63;;;;;;;17.64;53.85;98688.44;5058179;28;20169;-85
2023/10/15 00:08:50;;;;;;;6.90;2.60;;;;;;;17.70;53.60;98685.25;5075726;28;20654;-85
2023/10/15 00:11:21;;;;;;;7.40;2.60;;;;;;;17.72;53.82;98691.25;5058927;28;20172;-85
2023/10/15 00:13:47;;;;;;;4.53;2.17;;;;;;;17.67;54.17;98680.22;5076279;28;20191;-85
2023/10/15 00:16:20;;;;;;;7.63;2.70;;;;;;;17.72;54.36;98681.47;5075891;28;20629;-85
2023/10/15 00:18:46;;;;;;;10.53;2.30;;;;;;;17.76;53.96;98674.94;5057903;28;20193;-85
2023/10/15 00:21:14;;;;;;;10.77;3.40;;;;;;;17.75;53.92;98673.25;5075531;28;20673;-85
2023/10/15 00:23:42;;;;;;;6.03;2.73;;;;;;;17.70;54.09;98667.53;5057840;28;20270;-86
2023/10/15 00:26:12;;;;;;;7.20;3.07;;;;;;;17.63;54.77;98666.41;5075477;28;20169;-85
2023/10/15 00:28:38;;;;;;;5.27;2.47;;;;;;;17.61;55.23;98676.28;5057783;28;20184;-85
2023/10/15 00:31:13;;;;;;;6.27;2.93;;;;;;;17.56;55.18;98667.91;5075283;28;20180;-85
2023/10/15 00:33:42;;;;;;;9.30;2.97;;;;;;;17.49;55.32;98661.44;5057766;28;20188;-85
2023/10/15 00:36:12;;;;;;;6.50;2.80;;;;;;;17.47;55.28;98665.22;5057626;28;20254;-85
2023/10/15 00:38:38;;;;;;;7.73;2.90;;;;;;;17.39;55.55;98662.38;5075199;28;20544;-85
2023/10/15 00:41:09;;;;;;;6.00;2.50;;;;;;;17.38;56.02;98661.53;5057534;28;20181;-85
2023/10/15 00:43:35;;;;;;;4.07;2.23;;;;;;;17.39;55.68;98651.78;5075141;28;20238;-85
2023/10/15 00:46:13;;;;;;;8.70;3.37;;;;;;;17.41;55.47;98657.78;5085917;28;20637;-85
2023/10/15 00:48:39;;;;;;;7.40;2.90;;;;;;;17.43;55.41;98658.47;5095204;28;20178;-85
2023/10/15 00:51:11;;;;;;;9.23;3.03;;;;;;;17.37;55.90;98649.28;5077415;28;20188;-85
2023/10/15 00:53:49;;;;;;;13.23;3.27;;;;;;;17.31;56.15;98654.28;5095476;28;20156;-85
2023/10/15 00:56:23;;;;;;;7.10;3.33;;;;;;;17.18;55.87;98649.22;5077539;28;20657;-85
2023/10/15 00:59:08;;;;;;;5.77;2.57;;;;;;;17.18;55.55;98649.22;5095255;28;20188;-85
2023/10/15 01:01:54;;;;;;;5.80;2.73;;;;;;;17.13;55.39;98652.28;5094586;28;20192;-85
2023/10/15 01:04:25;;;;;;;8.43;2.70;;;;;;;17.14;55.19;98650.44;5095185;28;20243;-86
2023/10/15 01:06:51;;;;;;;6.33;2.30;;;;;;;17.12;55.24;98647.94;5077047;28;20202;-85
2023/10/15 01:09:30;;;;;;;6.97;2.50;;;;;;;17.02;55.14;98640.91;5076484;28;20200;-85
2023/10/15 01:11:58;;;;;;;9.27;2.60;;;;;;;17.00;54.72;98637.56;5076947;28;20174;-85
2023/10/15 01:14:38;;;;;;;11.10;3.00;;;;;;;16.95;53.87;98634.50;5094691;28;20175;-85
2023/10/15 01:17:04;;;;;;;5.43;2.80;;;;;;;16.92;53.27;98640.03;5095029;28;20157;-86
2023/10/15 01:19:34;;;;;;;5.57;3.13;;;;;;;16.83;53.22;98633.72;5076770;28;20192;-85
2023/10/15 01:22:04;;;;;;;7.43;2.80;;;;;;;16.78;53.17;98633.28;5094618;28;20171;-85
2023/10/15 01:24:33;;;;;;;8.97;3.13;;;;;;;16.69;53.05;98633.25;5094486;28;20690;-85
2023/10/15 01:27:09;;;;;;;10.33;2.97;;;;;;;16.56;53.11;98630.81;5076948;28;20231;-85
2023/10/15 01:29:40;;;;;;;9.97;2.63;;;;;;;16.51;52.85;98623.19;5076698;28;20172;-85
2023/10/15 01:32:18;;;;;;;9.87;3.27;;;;;;;16.52;52.54;98621.41;5076601;28;20610;-85
2023/10/15 01:34:45;;;;;;;4.77;2.37;;;;;;;16.50;52.18;98623.34;5094825;28;20233;-86
2023/10/15 01:39:48;;;;;;;8.70;3.40;;;;;;;16.38;51.97;98630.50;5094155;28;20217;-85
2023/10/15 01:45:08;;;;;;;10.30;2.77;;;;;;;16.26;52.48;98630.69;5094216;28;20608;-85
2023/10/15 01:47:36;;;;;;;7.77;2.77;;;;;;;16.21;52.18;98633.72;5094134;28;20148;-85
2023/10/15 01:50:08;;;;;;;7.07;3.20;;;;;;;16.17;52.48;98632.28;5094655;28;20219;-85
2023/10/15 01:52:41;;;;;;;10.40;2.97;;;;;;;16.14;52.45;98629.09;5076205;28;20172;-85
2023/10/15 01:55:07;;;;;;;7.57;2.87;;;;;;;16.10;52.64;98620.56;5094587;28;20213;-85
2023/10/15 01:57:33;;;;;;;7.50;2.87;;;;;;;16.11;52.54;98627.53;5094179;28;20178;-85
2023/10/15 02:00:14;;;;;;;8.17;2.50;;;;;;;16.05;53.07;98627.19;5075948;28;20204;-85
2023/10/15 02:02:42;;;;;;;10.07;3.13;;;;;;;15.98;53.17;98632.16;5094074;28;20152;-85
2023/10/15 02:05:25;;;;;;;8.53;3.33;;;;;;;15.85;53.80;98620.91;5093744;28;20176;-85
2023/10/15 02:07:51;;;;;;;7.37;3.23;;;;;;;15.85;53.76;98621.72;5094128;28;20183;-85
2023/10/15 02:10:16;;;;;;;6.20;2.70;;;;;;;15.87;53.80;98622.47;5093732;28;20264;-85
2023/10/15 02:12:42;;;;;;;12.00;3.10;;;;;;;15.92;53.51;98630.84;5092913;28;20175;-85
2023/10/15 02:15:22;;;;;;;6.07;2.43;;;;;;;15.94;53.42;98628.06;5093946;28;20530;-86
2023/10/15 02:17:51;;;;;;;6.23;3.07;;;;;;;15.85;53.67;98628.84;5093869;28;20162;-85
2023/10/15 02:20:26;;;;;;;5.97;3.03;;;;;;;15.85;53.70;98628.84;5094084;28;20167;-85
2023/10/15 02:22:53;;;;;;;7.90;2.50;;;;;;;15.79;54.09;98621.41;5093861;28;20228;-85
2023/10/15 02:25:25;;;;;;;6.53;2.70;;;;;;;15.75;54.60;98622.59;5075679;28;20183;-85
2023/10/15 02:27:51;;;;;;;10.30;3.43;;;;;;;15.74;54.54;98623.59;5075768;28;20236;-85
2023/10/15 02:30:18;;;;;;;8.63;3.10;;;;;;;15.75;54.48;98619.97;5064797;28;20180;-85
2023/10/15 02:32:44;;;;;;;9.27;3.53;;;;;;;15.76;54.56;98616.38;5073171;28;20207;-85
2023/10/15 02:35:13;;;;;;;6.90;3.00;;;;;;;15.69;55.07;98621.34;5073504;28;20174;-85
2023/10/15 02:37:47;;;;;;;10.63;3.03;;;;;;;15.67;55.14;98617.16;5055275;28;20257;-85
2023/10/15 02:40:17;;;;;;;8.23;3.30;;;;;;;15.70;55.44;98611.59;5035594;28;20176;-85
2023/10/15 02:42:52;;;;;;;9.90;3.77;;;;;;;15.67;55.72;98606.56;5053675;28;20237;-85
2023/10/15 02:45:23;;;;;;;7.00;3.07;;;;;;;15.69;55.84;98604.63;5052919;28;20318;-85
2023/10/15 02:47:54;;;;;;;7.57;2.73;;;;;;;15.69;56.09;98602.00;5053332;28;20219;-85
2023/10/15 02:50:26;;;;;;;7.33;3.47;;;;;;;15.67;56.21;98602.09;5053566;28;20151;-85
2023/10/15 02:52:54;;;;;;;9.67;3.30;;;;;;;15.65;56.42;98596.13;5053262;28;20157;-85
2023/10/15 02:55:26;;;;;;;6.30;2.20;;;;;;;15.61;56.31;98601.78;5053514;28;20639;-85
2023/10/15 02:58:00;;;;;;;7.07;2.80;;;;;;;15.57;56.80;98598.53;5053454;28;20171;-85
2023/10/15 03:00:32;;;;;;;4.83;2.63;;;;;;;15.54;57.08;98600.59;5035938;28;20163;-85
2023/10/15 03:03:16;;;;;;;6.50;2.50;;;;;;;15.52;57.01;98602.50;5038280;28;20198;-85
2023/10/15 03:05:42;;;;;;;6.03;2.57;;;;;;;15.53;56.73;98604.19;5073223;28;20593;-85
2023/10/15 03:08:20;;;;;;;8.10;2.53;;;;;;;15.52;57.03;98597.22;5055186;28;20179;-85
2023/10/15 03:10:50;;;;;;;10.07;3.03;;;;;;;15.59;56.70;98601.06;5055249;28;20269;-85
2023/10/15 03:13:18;;;;;;;12.67;3.17;;;;;;;15.59;56.64;98604.53;5073010;28;20174;-85
2023/10/15 03:15:52;;;;;;;7.07;2.97;;;;;;;15.57;56.77;98613.53;5072747;28;20257;-85
2023/10/15 03:18:23;;;;;;;6.90;2.50;;;;;;;15.47;56.90;98612.63;5073303;28;20182;-85
2023/10/15 03:23:39;;;;;;;7.90;3.03;;;;;;;15.41;57.76;98597.25;5073855;28;20201;-85
2023/10/15 03:26:05;;;;;;;6.50;2.73;;;;;;;15.41;57.73;98602.53;5076556;28;20168;-85
2023/10/15 03:28:34;;;;;;;4.67;2.27;;;;;;;15.41;58.03;98600.72;5059338;28;20596;-85
2023/10/15 03:31:01;;;;;;;4.97;2.50;;;;;;;15.44;57.90;98599.63;5058835;28;20183;-85
2023/10/15 03:33:30;;;;;;;6.93;2.70;;;;;;;15.43;57.82;98592.69;5058840;28;20197;-85
2023/10/15 03:35:59;;;;;;;8.83;3.10;;;;;;;15.38;57.96;98593.88;5076293;28;20185;-85
2023/10/15 03:38:33;;;;;;;6.27;2.87;;;;;;;15.43;57.94;98597.97;5076255;28;20255;-85
2023/10/15 03:41:21;;;;;;;6.23;2.70;;;;;;;15.46;57.87;98592.47;5076636;28;20716;-86
2023/10/15 03:43:48;;;;;;;14.83;2.87;;;;;;;15.47;57.92;98586.19;5076819;28;20155;-86
2023/10/15 03:46:19;;;;;;;6.47;2.93;;;;;;;15.42;58.56;98591.00;5069133;28;20317;-85
2023/10/15 03:48:49;;;;;;;10.93;2.70;;;;;;;15.36;59.09;98593.16;5078530;28;20174;-85
2023/10/15 03:51:20;;;;;;;4.30;2.40;;;;;;;15.28;59.42;98589.44;5078335;28;20179;-85
2023/10/15 03:53:49;;;;;;;9.20;3.47;;;;;;;15.22;59.24;98577.63;5078817;28;20184;-86
2023/10/15 03:56:27;;;;;;;6.27;2.67;;;;;;;15.22;58.91;98585.53;5096548;28;20167;-85
2023/10/15 03:58:53;;;;;;;5.70;2.50;;;;;;;15.26;58.47;98579.03;5096481;28;20201;-85
2023/10/15 04:01:22;;;;;;;5.07;3.00;;;;;;;15.27;57.73;98577.22;5078353;28;20174;-85
2023/10/15 04:03:48;;;;;;;4.07;2.40;;;;;;;15.28;58.21;98574.44;5095831;28;20184;-85
2023/10/15 04:06:17;;;;;;;9.20;2.70;;;;;;;15.29;57.87;98572.66;5078047;28;20246;-86
2023/10/15 04:11:42;;;;;;;9.13;3.10;;;;;;;15.23;58.54;98571.34;5096126;28;20310;-85
2023/10/15 04:16:59;;;;;;;6.73;3.07;;;;;;;15.11;58.97;98572.34;5096479;28;20177;-85
2023/10/15 04:19:29;;;;;;;7.97;3.33;;;;;;;15.13;58.34;98569.56;5078032;28;20548;-85
2023/10/15 04:22:15;;;;;;;10.20;2.40;;;;;;;15.13;58.07;98573.06;5095647;28;20195;-85
2023/10/15 04:24:46;;;;;;;6.07;3.00;;;;;;;15.01;57.27;98570.56;5095760;28;20247;-85
2023/10/15 04:27:18;;;;;;;10.40;3.07;;;;;;;15.04;56.77;98578.22;5095725;28;20174;-85
2023/10/15 04:29:54;;;;;;;6.63;3.00;;;;;;;14.99;56.28;98577.75;5077879;28;20222;-85
2023/10/15 04:35:11;;;;;;;6.37;2.70;;;;;;;14.92;55.95;98581.81;5095662;28;20161;-85
2023/10/15 04:37:38;;;;;;;5.37;2.90;;;;;;;14.97;55.67;98574.38;5094612;28;20640;-85
2023/10/15 04:40:06;;;;;;;7.10;2.60;;;;;;;14.97;55.56;98580.50;5077253;28;20549;-85
2023/10/15 04:42:51;;;;;;;9.30;3.03;;;;;;;15.01;55.87;98583.75;5077270;28;20201;-85
2023/10/15 04:45:41;;;;;;;7.63;3.03;;;;;;;14.97;56.05;98575.22;5095375;28;20169;-84
2023/10/15 04:48:25;;;;;;;10.43;3.07;;;;;;;14.97;56.02;98574.38;5094317;28;20178;-85
2023/10/15 04:50:53;;;;;;;6.33;2.50;;;;;;;15.00;56.11;98582.91;5095066;28;20171;-85
2023/10/15 04:55:49;;;;;;;6.27;2.50;;;;;;;14.97;56.68;98579.66;5095192;28;20532;-85
2023/10/15 04:58:16;;;;;;;6.43;2.13;;;;;;;14.88;57.16;98588.31;5094797;28;20273;-85
2023/10/15 05:00:45;;;;;;;11.70;3.40;;;;;;;14.97;57.21;98590.22;5077224;28;20172;-85
2023/10/15 05:03:15;;;;;;;5.13;2.30;;;;;;;14.93;57.68;98597.56;5095287;28;20248;-85
2023/10/15 05:05:42;;;;;;;6.17;2.50;;;;;;;14.90;58.09;98599.59;5094910;28;20230;-85
2023/10/15 05:08:13;;;;;;;7.67;3.13;;;;;;;15.00;57.83;98595.25;5076999;28;20198;-85
2023/10/15 05:10:45;;;;;;;5.47;2.73;;;;;;;14.98;57.94;98592.75;5095164;28;20201;-85
2023/10/15 05:13:12;;;;;;;6.60;2.60;;;;;;;15.11;57.78;98593.47;5076353;28;20188;-85
2023/10/15 05:15:42;;;;;;;7.23;2.70;;;;;;;15.15;57.48;98591.41;5095034;28;20259;-84
2023/10/15 05:18:09;;;;;;;7.40;2.90;;;;;;;15.39;57.87;98587.63;5094639;28;20270;-85
2023/10/15 05:20:36;;;;;;;8.33;3.43;;;;;;;15.98;56.82;98592.50;5094652;28;20168;-85
2023/10/15 05:23:04;;;;;;;6.10;3.03;;;;;;;16.70;54.39;98587.25;5095208;28;20169;-85
2023/10/15 05:25:32;;;;;;;8.33;3.60;;;;;;;17.05;52.38;98590.34;5076718;28;20177;-85
2023/10/15 05:28:01;;;;;;;10.27;2.83;;;;;;;17.08;51.73;98587.44;5095024;28;20175;-85
2023/10/15 05:30:28;;;;;;;6.93;2.47;;;;;;;17.08;51.89;98592.75;5076608;28;20183;-85
2023/10/15 05:32:54;;;;;;;6.90;3.13;;;;;;;17.16;52.32;98584.97;5094063;28;20554;-85
2023/10/15 05:35:21;;;;;;;7.90;3.87;;;;;;;17.36;51.83;98588.47;5094366;28;20171;-85
2023/10/15 05:37:48;;;;;;;7.37;3.20;;;;;;;17.77;50.86;98593.59;5076455;28;20551;-85
2023/10/15 05:40:17;;;;;;;12.40;3.37;;;;;;;18.51;48.90;98578.75;5094469;28;20228;-85
2023/10/15 05:42:43;;;;;;;6.70;3.00;;;;;;;19.43;46.88;98582.28;5076428;28;20207;-85
2023/10/15 05:45:10;;;;;;;7.87;3.47;;;;;;;20.17;44.85;98573.03;5094481;28;20172;-85
2023/10/15 05:47:37;;;;;;;10.53;3.53;;;;;;;20.47;44.06;98563.78;5092734;28;20191;-86
2023/10/15 05:50:04;;;;;;;10.00;3.50;;;;;;;20.64;44.05;98567.38;5094251;28;20252;-86
2023/10/15 05:52:31;;;;;;;7.77;3.40;;;;;;;20.75;43.62;98562.59;5093843;28;20661;-86
2023/10/15 05:55:00;;;;;;;6.33;3.40;;;;;;;20.81;43.33;98567.31;5094032;28;20173;-85
2023/10/15 05:57:27;;;;;;;12.40;4.37;;;;;;;20.72;43.52;98565.59;5076133;28;20263;-86
2023/10/15 05:59:54;;;;;;;12.27;4.23;;;;;;;20.79;43.64;98565.81;5076247;28;20253;-86
2023/10/15 06:02:21;;;;;;;13.77;3.93;;;;;;;21.07;43.48;98561.97;5075768;28;20208;-86
2023/10/15 06:04:48;;;;;;;9.23;3.97;;;;;;;21.33;43.21;98562.72;5093853;28;20172;-85
2023/10/15 06:07:15;;;;;;;11.97;3.50;;;;;;;21.82;42.73;98554.81;5093748;28;20183;-86
2023/10/15 06:10:06;;;;;;;11.00;3.67;;;;;;;22.35;42.17;98557.84;5298066;22;20274;-84
2023/10/15 06:12:31;;;;;;;8.90;4.43;;;;;;;22.56;41.42;98555.47;5032873;28;20228;-85
2023/10/15 06:14:59;;;;;;;7.53;3.07;;;;;;;22.61;41.62;98557.66;5012355;28;20199;-85
2023/10/15 06:17:25;;;;;;;6.40;3.07;;;;;;;22.90;41.79;98546.41;5022210;28;20186;-86
2023/10/15 06:19:50;;;;;;;13.83;3.60;;;;;;;23.66;40.43;98549.22;5009045;28;20649;-86
2023/10/15 06:22:16;;;;;;;5.77;2.80;;;;;;;24.91;38.47;98541.44;5028016;28;20627;-87
2023/10/15 06:24:46;;;;;;;10.07;2.57;;;;;;;26.08;36.41;98541.97;5018280;28;20273;-86
2023/10/15 06:27:15;;;;;;;6.60;2.83;;;;;;;27.08;35.02;98534.44;5024504;28;20178;-85
2023/10/15 06:29:41;;;;;;;5.30;2.57;;;;;;;28.18;33.31;98532.28;5011376;28;20277;-85
2023/10/15 06:32:06;;;;;;;5.70;2.37;;;;;;;29.09;32.09;98536.72;5025828;28;20277;-85
2023/10/15 06:34:32;;;;;;;6.30;2.60;;;;;;;29.77;31.07;98540.59;5005536;28;20340;-85
2023/10/15 06:36:58;;;;;;;6.37;2.80;;;;;;;30.25;30.41;98526.56;5024651;28;20179;-86
2023/10/15 06:39:23;;;;;;;6.83;3.03;;;;;;;30.59;29.67;98525.25;5020863;28;20218;-85
2023/10/15 06:41:49;;;;;;;9.17;3.00;;;;;;;30.99;29.86;98527.34;5009732;28;20196;-86
2023/10/15 06:44:16;;;;;;;15.73;3.00;;;;;;;31.38;28.71;98522.50;5022605;28;20548;-86
2023/10/15 06:46:41;;;;;;;10.00;2.90;;;;;;;31.58;28.46;98525.78;5023059;28;20214;-86
2023/10/15 06:49:07;;;;;;;7.03;2.42;;;;;;;31.76;28.07;98531.16;5028039;28;20220;-86
2023/10/15 06:51:34;;;;;;;8.98;2.25;;;;;;;31.87;28.41;98530.38;5005810;28;20246;-86
2023/10/15 06:54:00;;;;;;;8.13;2.45;;;;;;;31.87;28.10;98526.84;5017499;28;20186;-87
2023/10/15 06:56:25;;;;;;;13.98;2.60;;;;;;;31.70;28.04;98517.72;5006265;28;20694;-87
2023/10/15 06:58:51;;;;;;;7.13;2.63;;;;;;;31.46;28.75;98519.50;5020377;28;20228;-88
2023/10/15 07:01:16;;;;;;;7.53;2.47;;;;;;;31.32;28.28;98517.97;5027636;28;20201;-87
2023/10/15 07:03:42;;;;;;;6.43;2.25;;;;;;;31.21;29.36;98510.66;5010112;28;20214;-87
2023/10/15 07:06:08;;;;;;;5.88;3.03;;;;;;;31.08;27.82;98516.22;5011165;28;20628;-87
2023/10/15 07:08:34;;;;;;;7.35;2.13;;;;;;;30.61;29.29;98512.34;5019718;28;20187;-88
2023/10/15 07:11:00;;;;;;;6.53;2.58;;;;;;;30.28;29.29;98518.00;5027195;28;20259;-88
2023/10/15 07:13:26;;;;;;;7.53;2.10;;;;;;;30.05;29.67;98515.91;5001982;28;20203;-88
2023/10/15 07:15:52;;;;;;;5.90;2.20;;;;;;;29.90;29.96;98526.19;5005678;28;20678;-87
2023/10/15 07:18:19;;;;;;;7.50;2.13;;;;;;;29.74;29.87;98514.00;5010366;28;20244;-88
2023/10/15 07:20:45;;;;;;;7.05;2.20;;;;;;;29.45;30.60;98520.03;5021091;28;20190;-88
2023/10/15 07:23:10;;;;;;;6.07;2.10;;;;;;;29.30;30.54;98519.44;5030056;28;20383;-88
2023/10/15 07:25:35;;;;;;;5.50;1.60;;;;;;;29.06;30.75;98520.16;5023615;28;20680;-88
2023/10/15 07:28:01;;;;;;;8.30;3.25;;;;;;;28.62;31.13;98519.00;5027474;28;20615;-87
2023/10/15 07:30:27;;;;;;;6.75;2.42;;;;;;;28.27;32.05;98525.66;5024949;28;20269;-88
2023/10/15 07:32:57;;;;;;;7.05;2.25;;;;;;;28.12;32.55;98522.34;5025883;28;20669;-88
2023/10/15 07:35:25;;;;;;;3.30;1.98;;;;;;;28.10;32.39;98515.50;5005189;28;20572;-88
2023/10/15 07:37:51;;;;;;;5.15;2.08;;;;;;;28.03;32.09;98510.13;5025750;28;20186;-87
2023/10/15 07:40:21;;;;;;;5.68;1.80;;;;;;;27.86;33.47;98515.03;5012623;28;20305;-87
2023/10/15 07:42:52;;;;;;;3.88;1.77;;;;;;;27.76;32.47;98508.38;5023136;28;20183;-88
2023/10/15 07:45:19;;;;;;;12.32;2.42;;;;;;;27.48;32.29;98508.53;5025575;28;20198;-88
2023/10/15 07:47:54;;;;;;;7.40;2.22;;;;;;;27.35;32.73;98508.47;5011447;28;20277;-87
2023/10/15 07:50:23;;;;;;;5.60;1.70;;;;;;;27.25;33.16;98514.22;5012279;28;20257;-87
2023/10/15 07:52:52;;;;;;;7.68;2.20;;;;;;;27.12;33.78;98513.34;5005567;28;20256;-88
2023/10/15 07:55:18;;;;;;;6.05;2.65;;;;;;;26.91;33.50;98506.22;5006108;28;20252;-88
2023/10/15 07:57:44;;;;;;;7.97;1.95;;;;;;;26.70;34.03;98503.59;5013222;28;20186;-88
2023/10/15 08:00:15;;;;;;;5.53;2.17;;;;;;;26.52;34.24;98505.97;5018885;28;20596;-87
2023/10/15 08:02:41;;;;;;;7.05;2.20;;;;;;;26.64;34.35;98499.00;5023150;28;20545;-89
2023/10/15 08:05:08;;;;;;;5.10;2.10;;;;;;;26.64;34.85;98496.31;5024800;28;20205;-87
2023/10/15 08:07:36;;;;;;;6.88;2.65;;;;;;;26.31;35.39;98492.59;5026881;28;20184;-88
2023/10/15 08:10:03;;;;;;;5.60;2.20;;;;;;;26.31;35.11;98490.72;5002395;28;20248;-88
2023/10/15 08:12:28;;;;;;;6.18;2.03;;;;;;;26.45;35.01;98486.25;5025405;28;20197;-88
2023/10/15 08:14:55;;;;;;;9.70;2.22;;;;;;;26.73;34.43;98482.50;5009895;28;20182;-88
2023/10/15 08:17:20;;;;;;;8.90;2.50;;;;;;;26.63;34.67;98484.72;5006606;28;20282;-88
2023/10/15 08:19:46;;;;;;;6.10;2.80;;;;;;;26.66;34.98;98476.28;5029558;28;20207;-88
2023/10/15 08:22:12;;;;;;;6.35;2.03;;;;;;;26.68;34.40;98479.59;5019598;28;20187;-88
2023/10/15 08:24:38;;;;;;;10.55;1.92;;;;;;;26.87;35.01;98480.75;5023833;28;20194;-88
2023/10/15 08:27:05;;;;;;;5.68;1.83;;;;;;;26.84;34.29;98490.03;5023883;28;20646;-88
2023/10/15 08:29:31;;;;;;;4.70;1.98;;;;;;;26.88;34.18;98479.72;5034054;28;20181;-88
2023/10/15 08:31:58;;;;;;;6.68;2.38;;;;;;;27.04;34.87;98482.09;5034440;28;20190;-88
2023/10/15 08:34:24;;;;;;;7.85;1.77;;;;;;;27.19;33.78;98487.31;5035555;28;20175;-88
2023/10/15 08:36:51;;;;;;;6.13;2.33;;;;;;;27.24;33.72;98472.22;5035275;28;20273;-88
2023/10/15 08:39:18;;;;;;;7.30;2.60;;;;;;;27.22;33.86;98481.53;5035191;28;20348;-88
2023/10/15 08:41:46;;;;;;;7.00;2.50;;;;;;;27.49;34.18;98479.78;5014089;28;20183;-88
2023/10/15 08:44:18;;;;;;;8.73;2.30;;;;;;;27.60;32.71;98488.06;5015323;28;20663;-88
2023/10/15 08:46:49;;;;;;;6.40;2.70;;;;;;;27.65;32.97;98477.50;5032072;28;20190;-88
2023/10/15 08:49:15;;;;;;;5.97;3.33;;;;;;;27.87;32.68;98470.06;5034725;28;20155;-88
2023/10/15 08:51:42;;;;;;;7.60;2.72;;;;;;;28.00;33.16;98465.53;5034098;28;20644;-88
2023/10/15 08:54:11;;;;;;;7.50;2.60;;;;;;;28.25;32.98;98456.84;5034138;28;20272;-88
2023/10/15 08:56:40;;;;;;;7.38;2.78;;;;;;;28.35;32.17;98462.63;5034997;28;20175;-88
2023/10/15 08:59:09;;;;;;;6.28;2.47;;;;;;;28.25;32.17;98452.25;5017279;28;20288;-88
2023/10/15 09:01:37;;;;;;;8.32;2.85;;;;;;;28.39;32.31;98447.69;5033979;28;20277;-88
2023/10/15 09:04:04;;;;;;;5.57;2.42;;;;;;;28.41;32.19;98445.59;5035257;28;20243;-87
2023/10/15 09:06:34;;;;;;;7.07;2.72;;;;;;;28.42;32.37;98447.25;5017778;28;20230;-88
2023/10/15 09:08:59;;;;;;;8.18;2.78;;;;;;;28.59;32.61;98438.50;5034688;28;20261;-88
2023/10/15 09:11:27;;;;;;;6.00;2.42;;;;;;;28.60;32.81;98434.75;5034372;28;20685;-89
2023/10/15 09:13:54;;;;;;;4.68;1.85;;;;;;;28.84;32.38;98437.81;5034659;28;20190;-90
2023/10/15 09:16:21;;;;;;;7.22;2.40;;;;;;;29.04;31.28;98438.56;5035143;28;20191;-89
2023/10/15 09:18:47;;;;;;;9.20;2.80;;;;;;;28.97;31.52;98435.06;5017267;28;20643;-90
2023/10/15 09:21:23;;;;;;;8.50;2.47;;;;;;;29.15;30.67;98432.50;5034137;28;20178;-89
2023/10/15 09:23:51;;;;;;;5.20;1.88;;;;;;;29.37;31.18;98428.47;5017111;28;20619;-89
2023/10/15 09:26:18;;;;;;;5.93;2.60;;;;;;;29.37;31.97;98420.38;5034506;28;20268;-89
2023/10/15 09:28:45;;;;;;;6.07;1.80;;;;;;;29.60;31.68;98420.63;5034140;28;20186;-89
2023/10/15 09:31:11;;;;;;;4.97;2.05;;;;;;;29.89;30.60;98415.63;5034889;28;20206;-89
2023/10/15 09:33:39;;;;;;;6.20;2.33;;;;;;;30.10;30.63;98412.53;5034304;28;20179;-89
2023/10/15 09:36:07;;;;;;;3.65;1.83;;;;;;;30.17;29.94;98405.19;5034070;28;20642;-90
2023/10/15 09:38:33;;;;;;;6.68;2.28;;;;;;;30.08;29.94;98401.13;5033001;28;20679;-89
2023/10/15 09:41:01;;;;;;;4.70;2.50;;;;;;;30.15;29.63;98394.59;5034160;28;20183;-89
2023/10/15 09:43:31;;;;;;;7.63;2.28;;;;;;;30.29;29.98;98379.06;5034673;28;20174;-89
2023/10/15 09:45:58;;;;;;;10.60;2.38;;;;;;;30.35;29.69;98380.84;5033797;28;20577;-89
2023/10/15 09:48:26;;;;;;;5.85;2.00;;;;;;;30.52;29.17;98376.53;5016621;28;20183;-90
2023/10/15 09:50:56;;;;;;;6.57;2.00;;;;;;;30.63;29.26;98367.69;5033786;28;20186;-90
2023/10/15 09:53:23;;;;;;;4.10;1.88;;;;;;;30.76;28.73;98369.38;5033980;28;20182;-89
2023/10/15 09:55:51;;;;;;;7.82;1.75;;;;;;;30.76;28.59;98362.09;5034226;28;20254;-89
2023/10/15 09:58:18;;;;;;;6.65;2.50;;;;;;;30.89;28.73;98351.09;5016520;28;20598;-89
2023/10/15 10:03:48;;;;;;;8.25;1.73;;;;;;;31.39;27.73;98339.97;5034396;28;20584;-90
2023/10/15 10:06:32;;;;;;;4.85;2.30;;;;;;;31.28;26.98;98328.06;5014104;28;20195;-89
2023/10/15 10:09:21;;;;;;;3.90;1.33;;;;;;;31.28;27.90;98330.75;5016743;28;20224;-90
2023/10/15 10:12:24;;;;;;;6.15;2.22;;;;;;;31.32;27.32;98323.81;5033391;28;20194;-89
2023/10/15 10:15:10;;;;;;;7.45;1.60;;;;;;;31.56;27.75;98322.00;5033345;28;20547;-89
2023/10/15 10:17:38;;;;;;;5.93;2.22;;;;;;;31.65;28.54;98317.06;5033892;28;20231;-90
2023/10/15 10:20:11;;;;;;;6.30;2.25;;;;;;;31.87;27.22;98312.69;5033374;28;20208;-90
2023/10/15 10:22:38;;;;;;;5.78;2.25;;;;;;;31.81;26.96;98309.06;5033301;28;20178;-89
2023/10/15 10:25:07;;;;;;;5.28;1.95;;;;;;;31.60;27.66;98299.59;5016016;28;20265;-90
2023/10/15 10:27:43;;;;;;;4.22;1.65;;;;;;;31.78;27.65;98295.16;5033069;28;20265;-89
2023/10/15 10:30:26;;;;;;;5.10;1.92;;;;;;;31.93;27.24;98292.78;5033653;28;20240;-90
2023/10/15 10:32:57;;;;;;;4.53;2.20;;;;;;;32.05;27.29;98289.00;5032778;28;20254;-91
2023/10/15 10:35:27;;;;;;;5.40;1.90;;;;;;;32.08;26.96;98291.25;5033496;28;20166;-90
2023/10/15 10:38:02;;;;;;;3.85;1.90;;;;;;;32.29;27.03;98281.66;5033279;28;20186;-89
2023/10/15 10:40:54;;;;;;;7.80;2.33;;;;;;;32.34;27.00;98280.97;5033459;28;20248;-90
2023/10/15 10:43:32;;;;;;;3.53;1.98;;;;;;;32.43;27.18;98282.22;5033375;28;20173;-91
2023/10/15 10:46:01;;;;;;;2.83;1.63;;;;;;;32.52;26.12;98281.59;5016001;28;20174;-91
2023/10/15 10:48:37;;;;;;;6.32;3.63;;;;;;;32.58;26.38;98274.41;5033056;28;20175;-90
2023/10/15 10:51:18;;;;;;;4.07;1.88;;;;;;;32.85;26.27;98256.47;5033085;28;20164;-89
2023/10/15 10:53:56;;;;;;;9.05;2.60;;;;;;;32.92;26.39;98254.41;5033386;28;20167;-90
2023/10/15 10:56:25;;;;;;;6.10;2.28;;;;;;;32.77;25.54;98248.72;5015841;28;20197;-89
2023/10/15 10:58:58;;;;;;;6.75;2.35;;;;;;;32.92;25.57;98243.53;5032941;28;20224;-90
2023/10/15 11:01:23;;;;;;;4.95;2.10;;;;;;;33.14;25.37;98240.97;5032946;28;20183;-90
2023/10/15 11:03:52;;;;;;;5.18;2.10;;;;;;;33.20;24.83;98234.56;5021419;28;20189;-89
2023/10/15 11:06:18;;;;;;;6.20;2.30;;;;;;;33.33;25.68;98229.59;5025574;28;20204;-89
2023/10/15 11:08:47;;;;;;;9.15;4.60;;;;;;;33.55;25.34;98226.09;5016237;28;20175;-90
2023/10/15 11:11:13;;;;;;;10.27;2.30;;;;;;;33.79;25.16;98227.56;5017808;28;20278;-90
2023/10/15 11:13:38;;;;;;;4.30;1.92;;;;;;;33.94;24.58;98223.16;5019520;28;20317;-90
2023/10/15 11:16:04;;;;;;;3.83;1.92;;;;;;;34.04;24.43;98217.06;5020678;28;20205;-89
2023/10/15 11:18:34;;;;;;;4.80;2.72;;;;;;;34.23;24.61;98212.94;5015713;28;20203;-90
2023/10/15 11:21:00;;;;;;;7.28;2.90;;;;;;;34.05;24.39;98213.25;5019950;28;20252;-91
2023/10/15 11:23:26;;;;;;;5.60;2.97;;;;;;;33.88;24.65;98215.22;5023970;28;20633;-90
2023/10/15 11:25:54;;;;;;;7.38;3.13;;;;;;;33.84;23.87;98211.34;5017417;28;20186;-90
2023/10/15 11:28:20;;;;;;;7.63;2.05;;;;;;;33.83;24.50;98213.22;5027353;28;20186;-90
2023/10/15 11:30:46;;;;;;;6.20;2.20;;;;;;;33.84;24.29;98208.59;5020750;28;20221;-90
2023/10/15 11:33:13;;;;;;;3.45;1.80;;;;;;;33.99;24.07;98206.09;5018533;28;20219;-90
2023/10/15 11:35:40;;;;;;;6.85;1.77;;;;;;;34.00;24.21;98199.59;5008842;28;20186;-90
2023/10/15 11:38:09;;;;;;;4.03;2.10;;;;;;;34.12;23.92;98203.00;5020163;28;20266;-90
2023/10/15 11:40:38;;;;;;;5.75;2.40;;;;;;;34.19;23.63;98198.22;5001338;28;20193;-90
2023/10/15 11:43:20;;;;;;;3.80;1.63;;;;;;;34.12;24.10;98199.50;5020867;28;20197;-90
2023/10/15 11:45:46;;;;;;;5.18;2.08;;;;;;;34.16;23.62;98206.88;5020521;28;20198;-90
2023/10/15 11:48:13;;;;;;;5.35;2.00;;;;;;;34.13;23.95;98195.69;5023459;28;20190;-90
2023/10/15 11:50:40;;;;;;;4.63;1.50;;;;;;;34.08;24.62;98193.72;5027169;28;20231;-90
2023/10/15 11:53:16;;;;;;;6.40;2.22;;;;;;;34.05;22.88;98188.75;5026753;28;20194;-89
2023/10/15 11:55:47;;;;;;;7.28;2.85;;;;;;;34.09;24.17;98184.50;5001957;28;20642;-90
2023/10/15 11:58:16;;;;;;;4.60;1.70;;;;;;;34.07;23.33;98186.63;5020630;28;20210;-89
2023/10/15 12:00:42;;;;;;;6.03;2.22;;;;;;;34.17;24.58;98175.91;5026416;28;20182;-90
2023/10/15 12:03:09;;;;;;;3.75;1.55;;;;;;;34.23;23.85;98174.84;5020838;28;20190;-91
2023/10/15 12:05:35;;;;;;;3.97;1.80;;;;;;;34.24;23.33;98175.69;5018618;28;20183;-90